Eagle Harbor, New York
Current Conditions -  °F | °C
As of 10:54 AM on Monday 26 Jan 2015 (Local Time) from KROC Reporting Station
Light Snow Light Snow  
Wind Chill:   Ceiling: 3500
Heat Index: 15°   Visibility: 5mi
Dew Point:   Wind: 13mph
Humidity: 56%   Direction: 50°NE
Pressure: 29.99"   Gusts: NA
Location:  43.2353°N, 78.214°W
Report Text: KROC 261554Z 05011KT 5SM -SN BKN035 OVC045 M09/M17 A2999 RMK AO2 SNB39 SLP170 P0000 T10941167
Loading
Personal Weather Stations






























Interactive Weather Map New forecast layout! Learn more

10-Day Weather Forecast

Advertisements
Track Severe Weather on mobile